Time;durP1;ratioP1;P1;durP2;ratioP2;P2;SDS_P1;SDS_P2;PMS_P1;PMS_P2;Temp;Humidity;BMP_temperature;BMP_pressure;BME280_temperature;BME280_humidity;BME280_pressure;Samples;Min_cycle;Max_cycle;Signal;HPM_P1;HPM_P2
2022/05/07 00:00:41;;;;;;;22.45;16.88;;;;;;;;;;5029896;28;20049;-70
2022/05/07 00:03:07;;;;;;;22.90;17.02;;;;;;;;;;5034263;28;20082;-70
2022/05/07 00:05:33;;;;;;;20.95;17.33;;;;;;;;;;5034344;28;20030;-70
2022/05/07 00:07:59;;;;;;;22.05;17.35;;;;;;;;;;5035767;28;20065;-71
2022/05/07 00:10:26;;;;;;;18.48;16.50;;;;;;;;;;5037260;28;20026;-71
2022/05/07 00:12:53;;;;;;;22.42;18.13;;;;;;;;;;5035749;28;20026;-70
2022/05/07 00:15:19;;;;;;;20.42;17.15;;;;;;;;;;5020641;28;20049;-71
2022/05/07 00:18:05;;;;;;;21.15;18.65;;;;;;;;;;5030558;28;20085;-71
2022/05/07 00:20:32;;;;;;;19.73;17.63;;;;;;;;;;5034299;28;20065;-70
2022/05/07 00:22:58;;;;;;;19.75;16.48;;;;;;;;;;5036324;28;20025;-70
2022/05/07 00:25:25;;;;;;;18.23;16.33;;;;;;;;;;5024362;28;20058;-69
2022/05/07 00:27:51;;;;;;;18.98;16.58;;;;;;;;;;5029865;28;20061;-70
2022/05/07 00:30:17;;;;;;;20.02;16.45;;;;;;;;;;5036452;28;20045;-70
2022/05/07 00:32:43;;;;;;;19.98;17.88;;;;;;;;;;5033468;28;20042;-70
2022/05/07 00:35:12;;;;;;;20.95;16.52;;;;;;;;;;5034409;28;20026;-70
2022/05/07 00:37:38;;;;;;;20.00;17.92;;;;;;;;;;5025031;28;20066;-70
2022/05/07 00:40:05;;;;;;;20.30;17.50;;;;;;;;;;5023461;28;20068;-70
2022/05/07 00:42:31;;;;;;;21.13;17.50;;;;;;;;;;5034806;28;20026;-71
2022/05/07 00:44:57;;;;;;;20.70;18.50;;;;;;;;;;5026386;28;20052;-71
2022/05/07 00:47:33;;;;;;;21.25;18.77;;;;;;;;;;5035131;28;20046;-72
2022/05/07 00:51:33;;;;;;;21.60;19.30;;;;;;;;;;5033217;28;20030;-70
2022/05/07 00:52:46;;;;;;;22.15;18.55;;;;;;;;;;5018020;28;20055;-70
2022/05/07 00:55:13;;;;;;;22.63;19.20;;;;;;;;;;5031796;28;20049;-70
2022/05/07 00:57:39;;;;;;;21.83;19.63;;;;;;;;;;5035501;28;20034;-70
2022/05/07 01:00:06;;;;;;;22.40;19.27;;;;;;;;;;5033730;28;20045;-70
2022/05/07 01:02:32;;;;;;;24.50;20.27;;;;;;;;;;5036502;28;20018;-70
2022/05/07 01:04:58;;;;;;;22.08;19.75;;;;;;;;;;5036667;28;20042;-70
2022/05/07 01:07:24;;;;;;;24.27;19.15;;;;;;;;;;5016224;28;20038;-70
2022/05/07 01:09:51;;;;;;;22.77;20.00;;;;;;;;;;5033578;28;20060;-70
2022/05/07 01:12:17;;;;;;;20.80;18.45;;;;;;;;;;5018369;28;20037;-70
2022/05/07 01:14:43;;;;;;;23.65;19.95;;;;;;;;;;5034321;28;20030;-69
2022/05/07 01:17:10;;;;;;;22.15;18.35;;;;;;;;;;5038202;28;20050;-70
2022/05/07 01:19:36;;;;;;;20.00;17.75;;;;;;;;;;5010740;28;20034;-71
2022/05/07 01:22:02;;;;;;;23.13;18.80;;;;;;;;;;5037750;28;20034;-71
2022/05/07 01:24:28;;;;;;;20.73;18.20;;;;;;;;;;5036275;28;20022;-71
2022/05/07 01:26:54;;;;;;;22.33;18.02;;;;;;;;;;5020464;28;20049;-70
2022/05/07 01:29:20;;;;;;;25.30;19.42;;;;;;;;;;5025092;28;20046;-70
2022/05/07 01:31:46;;;;;;;21.42;19.10;;;;;;;;;;5035049;28;20058;-71
2022/05/07 01:34:12;;;;;;;21.70;19.10;;;;;;;;;;5037289;28;20021;-70
2022/05/07 01:36:41;;;;;;;22.40;19.73;;;;;;;;;;5039202;28;20025;-71
2022/05/07 01:39:07;;;;;;;22.08;18.92;;;;;;;;;;5037559;28;20029;-71
2022/05/07 01:41:33;;;;;;;22.80;19.38;;;;;;;;;;5031038;28;20080;-71
2022/05/07 01:43:59;;;;;;;21.60;19.40;;;;;;;;;;5035335;28;20110;-72
2022/05/07 01:49:09;;;;;;;22.30;19.90;;;;;;;;;;5035866;28;20026;-72
2022/05/07 01:51:35;;;;;;;21.35;19.05;;;;;;;;;;5022646;28;20049;-71
2022/05/07 01:54:02;;;;;;;22.23;19.67;;;;;;;;;;5030119;28;20038;-70
2022/05/07 01:56:28;;;;;;;22.65;20.17;;;;;;;;;;5035150;28;20045;-71
2022/05/07 01:58:54;;;;;;;24.45;20.85;;;;;;;;;;5032199;28;20035;-70
2022/05/07 02:01:20;;;;;;;23.65;21.25;;;;;;;;;;5017771;28;20046;-71
2022/05/07 02:03:46;;;;;;;22.60;20.30;;;;;;;;;;5023868;28;20034;-70
2022/05/07 02:06:12;;;;;;;25.35;21.20;;;;;;;;;;5064540;22;20057;-80
2022/05/07 02:08:38;;;;;;;24.25;21.75;;;;;;;;;;5081134;28;20501;-84
2022/05/07 02:11:04;;;;;;;24.65;21.42;;;;;;;;;;5060903;28;20457;-81
2022/05/07 02:13:30;;;;;;;24.10;21.50;;;;;;;;;;5067226;28;20106;-82
2022/05/07 02:15:56;;;;;;;25.45;20.73;;;;;;;;;;5066896;28;20050;-81
2022/05/07 02:18:23;;;;;;;26.70;22.65;;;;;;;;;;5085511;28;20040;-82
2022/05/07 02:20:49;;;;;;;23.63;21.08;;;;;;;;;;5065909;28;20044;-82
2022/05/07 02:23:17;;;;;;;24.73;21.75;;;;;;;;;;5083722;28;20048;-82
2022/05/07 02:25:44;;;;;;;25.05;21.90;;;;;;;;;;5066456;28;20055;-81
2022/05/07 02:28:10;;;;;;;25.27;22.38;;;;;;;;;;5050344;28;20060;-82
2022/05/07 02:30:36;;;;;;;25.27;22.38;;;;;;;;;;5086563;28;20048;-82
2022/05/07 02:33:02;;;;;;;26.08;22.30;;;;;;;;;;5031813;28;20505;-82
2022/05/07 02:35:30;;;;;;;26.95;23.13;;;;;;;;;;5032902;28;20505;-82
2022/05/07 02:37:58;;;;;;;25.17;22.55;;;;;;;;;;5047749;28;20063;-83
2022/05/07 02:40:24;;;;;;;24.20;21.40;;;;;;;;;;5061320;28;20059;-83
2022/05/07 02:42:50;;;;;;;26.77;23.45;;;;;;;;;;5062443;28;20523;-81
2022/05/07 02:45:16;;;;;;;25.67;22.80;;;;;;;;;;5064912;28;20044;-82
2022/05/07 02:47:43;;;;;;;25.00;22.38;;;;;;;;;;5066736;28;20048;-81
2022/05/07 02:50:11;;;;;;;25.50;22.75;;;;;;;;;;5085017;28;20060;-82
2022/05/07 02:52:38;;;;;;;24.95;22.42;;;;;;;;;;5065926;28;20044;-82
2022/05/07 02:55:05;;;;;;;26.23;23.42;;;;;;;;;;5085833;28;20048;-82
2022/05/07 02:57:31;;;;;;;28.55;22.08;;;;;;;;;;5067307;28;20863;-83
2022/05/07 02:59:57;;;;;;;28.70;22.67;;;;;;;;;;5084268;28;20044;-82
2022/05/07 03:02:23;;;;;;;25.02;22.38;;;;;;;;;;5083617;28;20044;-82
2022/05/07 03:04:50;;;;;;;23.88;21.30;;;;;;;;;;5066902;28;20040;-83
2022/05/07 03:07:16;;;;;;;24.80;21.95;;;;;;;;;;5073081;28;20048;-82
2022/05/07 03:09:42;;;;;;;27.38;23.30;;;;;;;;;;5063612;28;20080;-82
2022/05/07 03:12:09;;;;;;;24.77;22.00;;;;;;;;;;5063545;28;20406;-81
2022/05/07 03:14:35;;;;;;;26.25;22.65;;;;;;;;;;5063120;28;20041;-82
2022/05/07 03:17:01;;;;;;;25.58;22.85;;;;;;;;;;5059851;28;20041;-83
2022/05/07 03:19:27;;;;;;;24.38;21.77;;;;;;;;;;5060619;28;20093;-83
2022/05/07 03:21:54;;;;;;;25.58;22.20;;;;;;;;;;5061915;28;20098;-83
2022/05/07 03:24:20;;;;;;;24.73;22.15;;;;;;;;;;5063471;28;20036;-82
2022/05/07 03:26:46;;;;;;;25.95;22.42;;;;;;;;;;5063121;28;20041;-83
2022/05/07 03:29:12;;;;;;;28.23;22.50;;;;;;;;;;5062230;28;20047;-83
2022/05/07 03:31:39;;;;;;;25.52;22.63;;;;;;;;;;5061437;28;20096;-81
2022/05/07 03:34:09;;;;;;;25.30;22.70;;;;;;;;;;5068840;28;20048;-82
2022/05/07 03:36:35;;;;;;;27.63;23.25;;;;;;;;;;5054683;28;20067;-82
2022/05/07 03:39:01;;;;;;;25.80;23.15;;;;;;;;;;5063748;28;20048;-81
2022/05/07 03:41:27;;;;;;;28.17;24.23;;;;;;;;;;5061835;28;20037;-82
2022/05/07 03:43:53;;;;;;;26.42;23.63;;;;;;;;;;5047397;28;20046;-82
2022/05/07 03:46:21;;;;;;;28.73;23.00;;;;;;;;;;5045967;28;20049;-81
2022/05/07 03:48:47;;;;;;;25.27;22.55;;;;;;;;;;5063044;28;20045;-82
2022/05/07 03:51:13;;;;;;;25.98;23.02;;;;;;;;;;5063927;28;20083;-81
2022/05/07 03:53:39;;;;;;;26.65;22.45;;;;;;;;;;5047161;28;20045;-81
2022/05/07 03:56:07;;;;;;;26.25;23.40;;;;;;;;;;5047927;28;20044;-81
2022/05/07 03:58:33;;;;;;;26.73;22.95;;;;;;;;;;5055089;28;20087;-81
2022/05/07 04:01:00;;;;;;;26.58;22.60;;;;;;;;;;5067586;28;20067;-81
2022/05/07 04:03:26;;;;;;;25.73;23.02;;;;;;;;;;5062155;28;20052;-80
2022/05/07 04:05:52;;;;;;;25.92;22.92;;;;;;;;;;5063514;28;20045;-82
2022/05/07 04:08:19;;;;;;;25.75;22.75;;;;;;;;;;5062642;28;20052;-82
2022/05/07 04:10:45;;;;;;;26.90;23.98;;;;;;;;;;5052676;28;20142;-82
2022/05/07 04:13:15;;;;;;;28.10;25.05;;;;;;;;;;5060752;28;20045;-82
2022/05/07 04:15:43;;;;;;;28.30;25.10;;;;;;;;;;5064989;28;20052;-81
2022/05/07 04:18:09;;;;;;;27.08;23.95;;;;;;;;;;5057196;28;20056;-82
2022/05/07 04:20:35;;;;;;;26.13;23.42;;;;;;;;;;5063333;28;20037;-82
2022/05/07 04:23:01;;;;;;;31.27;24.98;;;;;;;;;;5063688;28;20049;-83
2022/05/07 04:25:27;;;;;;;27.52;24.58;;;;;;;;;;5046102;28;20033;-82
2022/05/07 04:27:54;;;;;;;29.35;23.38;;;;;;;;;;5064188;28;20049;-82
2022/05/07 04:30:20;;;;;;;28.55;25.65;;;;;;;;;;5064093;28;20051;-82
2022/05/07 04:32:46;;;;;;;28.75;25.58;;;;;;;;;;5064432;28;20403;-82
2022/05/07 04:35:12;;;;;;;27.60;24.77;;;;;;;;;;5059489;28;20128;-81
2022/05/07 04:37:38;;;;;;;28.60;25.60;;;;;;;;;;5063907;28;20041;-82
2022/05/07 04:40:04;;;;;;;27.33;24.40;;;;;;;;;;5063950;28;20103;-82
2022/05/07 04:42:31;;;;;;;28.02;25.08;;;;;;;;;;5060334;28;20383;-81
2022/05/07 04:44:57;;;;;;;30.10;26.42;;;;;;;;;;5042916;28;20099;-82
2022/05/07 04:47:23;;;;;;;28.80;25.77;;;;;;;;;;5064603;28;20041;-82
2022/05/07 04:49:49;;;;;;;29.13;26.23;;;;;;;;;;5069309;28;20558;-83
2022/05/07 04:52:15;;;;;;;28.73;25.65;;;;;;;;;;5066575;28;20048;-82
2022/05/07 04:54:41;;;;;;;28.58;25.67;;;;;;;;;;5066299;28;20406;-83
2022/05/07 04:57:07;;;;;;;27.33;24.45;;;;;;;;;;5059609;28;20048;-82
2022/05/07 04:59:33;;;;;;;29.08;25.63;;;;;;;;;;5066904;28;20510;-82
2022/05/07 05:01:59;;;;;;;29.30;26.10;;;;;;;;;;5065598;28;20181;-81
2022/05/07 05:04:25;;;;;;;29.52;26.40;;;;;;;;;;5067533;28;20076;-83
2022/05/07 05:06:51;;;;;;;28.77;25.77;;;;;;;;;;5064640;28;20057;-81
2022/05/07 05:09:17;;;;;;;29.00;25.95;;;;;;;;;;5065596;28;20060;-82
2022/05/07 05:11:43;;;;;;;29.45;26.27;;;;;;;;;;5064309;28;20045;-82
2022/05/07 05:16:54;;;;;;;29.33;26.25;;;;;;;;;;5064316;28;20041;-82
2022/05/07 05:19:20;;;;;;;28.17;25.35;;;;;;;;;;5061372;28;20041;-81
2022/05/07 05:21:46;;;;;;;30.42;27.30;;;;;;;;;;5062123;28;20112;-82
2022/05/07 05:24:13;;;;;;;29.25;26.10;;;;;;;;;;5062914;28;20075;-82
2022/05/07 05:26:39;;;;;;;28.77;25.63;;;;;;;;;;5063507;28;20508;-80
2022/05/07 05:29:05;;;;;;;29.40;26.05;;;;;;;;;;5059040;28;20038;-82
2022/05/07 05:31:31;;;;;;;29.10;26.02;;;;;;;;;;5055575;28;20048;-83
2022/05/07 05:33:57;;;;;;;28.40;25.40;;;;;;;;;;5065346;28;20110;-82
2022/05/07 05:36:24;;;;;;;28.50;25.63;;;;;;;;;;5064239;28;20032;-81
2022/05/07 05:38:50;;;;;;;30.23;26.95;;;;;;;;;;5067849;28;20041;-82
2022/05/07 05:41:16;;;;;;;30.13;25.95;;;;;;;;;;5067385;28;20037;-82
2022/05/07 05:43:42;;;;;;;29.27;26.08;;;;;;;;;;5050341;28;20461;-82
2022/05/07 05:46:08;;;;;;;28.60;25.60;;;;;;;;;;5067622;28;20037;-82
2022/05/07 05:48:34;;;;;;;29.13;25.90;;;;;;;;;;5067568;28;20095;-82
2022/05/07 05:51:00;;;;;;;28.67;25.80;;;;;;;;;;5049982;28;20037;-82
2022/05/07 05:53:26;;;;;;;28.48;25.13;;;;;;;;;;5046603;28;20077;-80
2022/05/07 05:55:52;;;;;;;28.25;25.25;;;;;;;;;;5065779;28;20057;-81
2022/05/07 05:58:18;;;;;;;28.17;25.23;;;;;;;;;;5063276;28;20052;-82
2022/05/07 06:00:44;;;;;;;26.90;23.35;;;;;;;;;;5066071;28;20101;-82
2022/05/07 06:03:10;;;;;;;26.65;24.08;;;;;;;;;;5061253;28;20041;-82
2022/05/07 06:05:37;;;;;;;28.67;25.95;;;;;;;;;;5066193;28;20521;-82
2022/05/07 06:08:03;;;;;;;28.02;25.27;;;;;;;;;;5064240;28;20521;-83
2022/05/07 06:10:29;;;;;;;29.00;25.38;;;;;;;;;;5067153;28;20045;-82
2022/05/07 06:12:55;;;;;;;28.80;25.25;;;;;;;;;;5047633;28;20053;-80
2022/05/07 06:15:22;;;;;;;28.75;25.70;;;;;;;;;;5066457;28;20056;-82
2022/05/07 06:17:48;;;;;;;27.40;24.67;;;;;;;;;;5066139;28;20037;-82
2022/05/07 06:20:14;;;;;;;25.88;23.10;;;;;;;;;;5066202;28;20403;-83
2022/05/07 06:22:40;;;;;;;23.25;20.65;;;;;;;;;;5065965;28;20518;-81
2022/05/07 06:27:51;;;;;;;23.38;21.10;;;;;;;;;;5065902;28;20044;-81
2022/05/07 06:30:17;;;;;;;21.77;19.58;;;;;;;;;;5058987;28;20243;-80
2022/05/07 06:32:43;;;;;;;22.17;19.08;;;;;;;;;;5060521;28;22411;-82
2022/05/07 06:35:10;;;;;;;21.27;18.73;;;;;;;;;;5060529;28;20065;-82
2022/05/07 06:37:37;;;;;;;20.80;18.75;;;;;;;;;;5070007;28;20044;-79
2022/05/07 06:40:05;;;;;;;21.80;19.50;;;;;;;;;;5059584;28;20099;-83
2022/05/07 06:42:34;;;;;;;21.45;19.20;;;;;;;;;;5076502;28;20045;-83
2022/05/07 06:45:00;;;;;;;21.67;19.05;;;;;;;;;;5062063;28;20136;-83
2022/05/07 06:47:26;;;;;;;19.73;17.63;;;;;;;;;;5051487;28;20691;-82
2022/05/07 06:49:52;;;;;;;21.38;16.00;;;;;;;;;;5055666;28;20123;-83
2022/05/07 06:52:18;;;;;;;18.83;15.73;;;;;;;;;;5064487;28;20132;-84
2022/05/07 06:54:44;;;;;;;16.40;14.73;;;;;;;;;;5041669;28;20176;-83
2022/05/07 06:57:11;;;;;;;15.88;14.18;;;;;;;;;;5062447;28;20045;-82
2022/05/07 06:59:38;;;;;;;20.15;14.77;;;;;;;;;;5064578;28;20077;-82
2022/05/07 07:02:07;;;;;;;18.75;15.50;;;;;;;;;;5062693;28;20115;-83
2022/05/07 07:04:33;;;;;;;17.23;15.38;;;;;;;;;;5059909;28;20047;-81
2022/05/07 07:06:59;;;;;;;17.45;14.88;;;;;;;;;;5065398;28;20131;-84
2022/05/07 07:09:25;;;;;;;18.25;15.30;;;;;;;;;;5047373;28;20036;-83
2022/05/07 07:11:51;;;;;;;20.02;15.80;;;;;;;;;;5082306;28;20051;-84
2022/05/07 07:14:17;;;;;;;16.98;14.30;;;;;;;;;;5055057;28;20514;-82
2022/05/07 07:16:43;;;;;;;18.08;15.77;;;;;;;;;;5066317;28;20050;-83
2022/05/07 07:19:10;;;;;;;18.13;15.57;;;;;;;;;;5086822;28;20506;-82
2022/05/07 07:21:36;;;;;;;20.50;15.82;;;;;;;;;;5085617;28;20040;-83
2022/05/07 07:24:02;;;;;;;19.05;16.20;;;;;;;;;;5084488;28;20045;-82
2022/05/07 07:26:28;;;;;;;19.08;16.63;;;;;;;;;;5066297;28;20052;-83
2022/05/07 07:28:55;;;;;;;16.73;15.02;;;;;;;;;;5066060;28;20114;-83
2022/05/07 07:31:21;;;;;;;18.42;16.50;;;;;;;;;;5084482;28;20048;-83
2022/05/07 07:33:47;;;;;;;20.88;16.98;;;;;;;;;;5084769;28;20112;-82
2022/05/07 07:36:14;;;;;;;20.05;17.23;;;;;;;;;;5085792;28;20041;-83
2022/05/07 07:38:40;;;;;;;18.75;16.75;;;;;;;;;;5083181;28;20101;-83
2022/05/07 07:41:06;;;;;;;18.60;16.73;;;;;;;;;;5083779;28;20075;-84
2022/05/07 07:43:32;;;;;;;19.83;17.50;;;;;;;;;;5084798;28;20070;-84
2022/05/07 07:48:43;;;;;;;21.25;18.00;;;;;;;;;;5083166;28;20403;-83
2022/05/07 07:51:09;;;;;;;20.13;17.98;;;;;;;;;;5085757;28;20123;-83
2022/05/07 07:53:40;;;;;;;20.13;17.92;;;;;;;;;;5083227;28;20036;-82
2022/05/07 07:56:07;;;;;;;24.70;18.67;;;;;;;;;;5067844;28;21332;-86
2022/05/07 07:58:34;;;;;;;20.33;18.13;;;;;;;;;;5083238;28;20048;-82
2022/05/07 08:01:00;;;;;;;20.77;18.50;;;;;;;;;;5080336;28;20550;-83
2022/05/07 08:03:26;;;;;;;24.17;17.80;;;;;;;;;;5059423;28;20740;-83
2022/05/07 08:05:53;;;;;;;23.73;19.27;;;;;;;;;;5082850;28;20052;-81
2022/05/07 08:13:49;;;;;;;19.83;17.70;;;;;;;;;;5059949;28;20049;-83
2022/05/07 08:16:20;;;;;;;24.42;18.38;;;;;;;;;;5067212;28;20045;-83
2022/05/07 08:18:46;;;;;;;21.10;17.35;;;;;;;;;;5078688;28;20546;-83
2022/05/07 08:21:12;;;;;;;19.08;17.15;;;;;;;;;;5083605;28;20130;-84
2022/05/07 08:23:41;;;;;;;22.13;17.60;;;;;;;;;;5084895;28;20045;-83
2022/05/07 08:26:07;;;;;;;19.80;17.35;;;;;;;;;;5089593;28;20100;-84
2022/05/07 08:28:37;;;;;;;21.92;18.30;;;;;;;;;;5085085;28;20090;-84
2022/05/07 08:31:04;;;;;;;20.08;17.52;;;;;;;;;;5086605;28;20040;-83
2022/05/07 08:33:31;;;;;;;19.55;17.45;;;;;;;;;;5089817;28;20070;-82
2022/05/07 08:35:57;;;;;;;17.75;15.90;;;;;;;;;;5088994;28;20040;-83
2022/05/07 08:38:24;;;;;;;18.77;15.88;;;;;;;;;;5089393;28;20056;-82
2022/05/07 08:40:50;;;;;;;24.40;17.80;;;;;;;;;;5084594;28;20037;-82
2022/05/07 08:43:17;;;;;;;18.88;16.98;;;;;;;;;;5059677;28;20096;-82
2022/05/07 08:45:44;;;;;;;18.42;16.33;;;;;;;;;;5062345;28;20048;-82
2022/05/07 08:48:10;;;;;;;21.60;15.90;;;;;;;;;;5081208;28;20082;-82
2022/05/07 08:50:38;;;;;;;18.48;14.25;;;;;;;;;;5085313;28;20056;-82
2022/05/07 08:53:04;;;;;;;17.85;14.48;;;;;;;;;;5050331;28;20715;-83
2022/05/07 08:55:31;;;;;;;17.50;14.23;;;;;;;;;;5069600;28;20098;-84
2022/05/07 08:57:57;;;;;;;22.80;15.20;;;;;;;;;;5067712;28;20044;-82
2022/05/07 09:00:24;;;;;;;18.63;16.30;;;;;;;;;;5084947;28;20040;-81
2022/05/07 09:02:52;;;;;;;17.67;15.77;;;;;;;;;;5083937;28;20045;-83
2022/05/07 09:05:19;;;;;;;22.20;17.00;;;;;;;;;;5084353;28;20083;-81
2022/05/07 09:07:52;;;;;;;20.08;17.88;;;;;;;;;;5082769;28;20402;-83
2022/05/07 09:10:19;;;;;;;18.73;16.73;;;;;;;;;;5087361;28;20108;-84
2022/05/07 09:12:45;;;;;;;18.30;16.20;;;;;;;;;;5086416;28;20075;-83
2022/05/07 09:15:11;;;;;;;20.75;15.45;;;;;;;;;;5065204;28;20049;-82
2022/05/07 09:17:37;;;;;;;20.15;14.13;;;;;;;;;;5069402;28;20045;-81
2022/05/07 09:20:11;;;;;;;18.73;13.70;;;;;;;;;;5083042;28;20041;-81
2022/05/07 09:22:47;;;;;;;16.45;13.70;;;;;;;;;;5059877;28;20123;-83
2022/05/07 09:25:18;;;;;;;15.60;12.82;;;;;;;;;;5083136;28;20037;-82
2022/05/07 09:27:45;;;;;;;;;;;;;;;;;;5085764;28;20405;-81
2022/05/07 09:30:11;;;;;;;17.92;12.90;;;;;;;;;;5052773;28;19927;-81
2022/05/07 09:32:38;;;;;;;22.75;13.02;;;;;;;;;;5083466;28;20045;-82
2022/05/07 09:38:02;;;;;;;16.58;12.85;;;;;;;;;;5066318;28;20505;-82
2022/05/07 09:40:29;;;;;;;15.85;12.93;;;;;;;;;;5064047;28;20049;-83
2022/05/07 09:42:58;;;;;;;18.95;13.15;;;;;;;;;;5083439;28;20045;-82
2022/05/07 09:45:27;;;;;;;17.27;13.80;;;;;;;;;;5083371;28;20040;-83
2022/05/07 09:48:00;;;;;;;16.42;12.75;;;;;;;;;;5082903;28;20056;-82
2022/05/07 09:58:38;;;;;;;18.38;12.73;;;;;;;;;;5082522;28;20080;-82
2022/05/07 10:01:22;;;;;;;18.38;13.20;;;;;;;;;;5068942;28;20041;-83
2022/05/07 10:03:50;;;;;;;17.20;13.15;;;;;;;;;;5081259;28;20041;-82
2022/05/07 10:06:16;;;;;;;17.20;13.30;;;;;;;;;;5085256;28;20072;-82
2022/05/07 10:09:01;;;;;;;16.73;13.43;;;;;;;;;;5086359;28;20418;-83
2022/05/07 10:11:27;;;;;;;17.83;13.48;;;;;;;;;;5087299;28;20041;-83
2022/05/07 10:13:54;;;;;;;16.60;12.90;;;;;;;;;;5087022;28;20051;-85
2022/05/07 10:16:23;;;;;;;20.30;13.38;;;;;;;;;;5084483;28;20043;-83
2022/05/07 10:18:50;;;;;;;17.63;13.00;;;;;;;;;;5075476;28;20065;-81
2022/05/07 10:21:19;;;;;;;17.98;13.00;;;;;;;;;;5081170;28;20111;-83
2022/05/07 10:23:55;;;;;;;17.23;12.93;;;;;;;;;;5079127;28;20498;-83
2022/05/07 10:26:36;;;;;;;18.27;13.52;;;;;;;;;;5063638;28;20052;-83
2022/05/07 10:29:03;;;;;;;;;;;;;;;;;;5084090;28;20063;-84
2022/05/07 10:31:30;;;;;;;17.38;11.93;;;;;;;;;;5084314;28;19967;-83
2022/05/07 10:33:56;;;;;;;24.65;11.45;;;;;;;;;;5067816;28;20044;-83
2022/05/07 10:36:22;;;;;;;16.70;12.00;;;;;;;;;;5085279;28;20044;-84
2022/05/07 10:38:49;;;;;;;18.58;12.02;;;;;;;;;;5067058;28;20072;-83
2022/05/07 10:41:15;;;;;;;16.65;11.73;;;;;;;;;;5084046;28;20079;-83
2022/05/07 10:43:43;;;;;;;17.52;11.63;;;;;;;;;;5063553;28;20402;-83
2022/05/07 10:46:10;;;;;;;15.50;11.10;;;;;;;;;;5056682;28;20544;-83
2022/05/07 10:48:50;;;;;;;15.63;9.95;;;;;;;;;;5062405;28;20068;-84
2022/05/07 10:51:32;;;;;;;15.02;10.85;;;;;;;;;;5064378;28;20091;-83
2022/05/07 10:54:00;;;;;;;16.48;10.73;;;;;;;;;;5064308;28;20478;-81
2022/05/07 10:56:27;;;;;;;17.85;12.00;;;;;;;;;;5082494;28;20040;-82
2022/05/07 10:58:54;;;;;;;18.23;12.50;;;;;;;;;;5064659;28;20045;-82
2022/05/07 11:01:22;;;;;;;15.65;12.63;;;;;;;;;;5059438;28;20040;-82
2022/05/07 11:03:48;;;;;;;21.05;13.68;;;;;;;;;;5079675;28;20178;-80
2022/05/07 11:06:14;;;;;;;18.77;14.63;;;;;;;;;;5062836;28;20475;-82
2022/05/07 11:08:47;;;;;;;17.92;13.45;;;;;;;;;;5082927;28;20063;-81
2022/05/07 11:11:15;;;;;;;23.60;15.05;;;;;;;;;;5066767;28;20091;-82
2022/05/07 11:13:49;;;;;;;21.38;14.80;;;;;;;;;;5065755;28;20100;-82
2022/05/07 11:16:19;;;;;;;21.45;13.98;;;;;;;;;;5083386;28;20078;-83
2022/05/07 11:18:47;;;;;;;19.70;14.18;;;;;;;;;;5082164;28;20044;-84
2022/05/07 11:21:14;;;;;;;19.88;14.40;;;;;;;;;;5062708;28;20041;-82
2022/05/07 11:23:39;;;;;;;16.23;12.82;;;;;;;;;;5073741;28;20041;-83
2022/05/07 11:26:10;;;;;;;20.98;13.40;;;;;;;;;;5069434;28;20062;-83
2022/05/07 11:28:36;;;;;;;20.17;13.30;;;;;;;;;;5080135;28;20426;-82
2022/05/07 11:31:02;;;;;;;15.20;12.40;;;;;;;;;;5061112;28;20490;-83
2022/05/07 11:33:29;;;;;;;16.45;13.40;;;;;;;;;;5062553;28;20100;-82
2022/05/07 11:36:06;;;;;;;18.48;12.70;;;;;;;;;;5075874;28;20075;-82
2022/05/07 11:38:34;;;;;;;12.38;11.00;;;;;;;;;;5036141;28;20045;-83
2022/05/07 11:41:10;;;;;;;14.85;12.18;;;;;;;;;;5063179;28;20044;-83
2022/05/07 11:46:21;;;;;;;15.98;11.20;;;;;;;;;;5077486;28;20064;-81
2022/05/07 11:48:47;;;;;;;14.10;11.65;;;;;;;;;;5061881;28;20041;-80
2022/05/07 11:51:22;;;;;;;19.02;14.30;;;;;;;;;;5079334;28;20048;-81
2022/05/07 11:53:48;;;;;;;22.20;12.23;;;;;;;;;;5063292;28;20048;-81
2022/05/07 11:56:15;;;;;;;16.10;14.40;;;;;;;;;;5080529;28;20051;-81
2022/05/07 11:58:42;;;;;;;16.73;13.27;;;;;;;;;;5063326;28;20048;-82
2022/05/07 12:01:37;;;;;;;15.70;12.50;;;;;;;;;;5081559;28;20036;-81
2022/05/07 12:04:09;;;;;;;14.45;11.88;;;;;;;;;;5060850;28;20044;-81
2022/05/07 12:06:35;;;;;;;19.85;15.93;;;;;;;;;;5063169;28;20052;-81
2022/05/07 12:09:13;;;;;;;24.33;21.58;;;;;;;;;;5079821;28;20086;-82
2022/05/07 12:11:40;;;;;;;24.27;19.70;;;;;;;;;;5046130;28;20045;-83
2022/05/07 12:14:06;;;;;;;25.02;21.17;;;;;;;;;;5080281;28;20608;-83
2022/05/07 12:19:27;;;;;;;24.13;21.48;;;;;;;;;;5076400;28;20053;-79
2022/05/07 12:30:08;;;;;;;25.63;22.88;;;;;;;;;;5078984;28;20048;-82
2022/05/07 12:32:34;;;;;;;28.65;22.77;;;;;;;;;;5073888;28;20036;-82
2022/05/07 12:35:00;;;;;;;27.02;24.08;;;;;;;;;;5050841;28;20090;-82
2022/05/07 12:37:26;;;;;;;28.52;23.13;;;;;;;;;;5044385;28;20049;-85
2022/05/07 12:39:52;;;;;;;26.90;23.45;;;;;;;;;;5061472;28;20055;-82
2022/05/07 12:42:18;;;;;;;25.13;22.33;;;;;;;;;;5076284;28;20036;-83
2022/05/07 12:44:45;;;;;;;25.17;21.10;;;;;;;;;;5060356;28;20402;-81
2022/05/07 12:47:11;;;;;;;25.95;20.23;;;;;;;;;;5062567;28;20502;-81
2022/05/07 12:49:38;;;;;;;23.15;20.70;;;;;;;;;;5077411;28;20048;-81
2022/05/07 12:52:06;;;;;;;23.45;20.00;;;;;;;;;;5077555;28;20120;-82
2022/05/07 12:54:32;;;;;;;24.00;19.10;;;;;;;;;;5060298;28;20056;-83
2022/05/07 12:56:58;;;;;;;24.25;18.80;;;;;;;;;;5073132;28;20102;-81
2022/05/07 12:59:25;;;;;;;24.70;21.08;;;;;;;;;;5059694;28;20041;-80
2022/05/07 13:01:51;;;;;;;25.17;20.70;;;;;;;;;;5061004;28;20045;-79
2022/05/07 13:04:18;;;;;;;27.60;23.10;;;;;;;;;;5078118;28;20409;-77
2022/05/07 13:06:45;;;;;;;25.60;21.83;;;;;;;;;;5080122;28;20098;-82
2022/05/07 13:09:11;;;;;;;25.38;21.63;;;;;;;;;;5065320;28;20062;-83
2022/05/07 13:11:37;;;;;;;23.80;20.73;;;;;;;;;;5063655;28;20048;-83
2022/05/07 13:14:04;;;;;;;28.73;25.17;;;;;;;;;;5059224;28;20130;-82
2022/05/07 13:16:30;;;;;;;33.67;26.23;;;;;;;;;;5066282;28;20120;-81
2022/05/07 13:18:56;;;;;;;30.00;25.25;;;;;;;;;;5083385;28;20078;-82
2022/05/07 13:21:22;;;;;;;28.80;24.73;;;;;;;;;;5076029;28;20041;-83
2022/05/07 13:23:48;;;;;;;30.92;24.83;;;;;;;;;;5054655;28;20041;-81
2022/05/07 13:26:14;;;;;;;30.38;24.60;;;;;;;;;;5078287;28;20047;-82
2022/05/07 13:28:40;;;;;;;30.80;24.17;;;;;;;;;;5080835;28;20052;-83
2022/05/07 13:31:07;;;;;;;25.45;22.00;;;;;;;;;;5066310;28;20041;-81
2022/05/07 13:33:33;;;;;;;24.63;21.83;;;;;;;;;;5064995;28;20048;-83
2022/05/07 13:35:59;;;;;;;28.02;21.55;;;;;;;;;;5066866;28;20529;-82
2022/05/07 13:38:25;;;;;;;22.80;19.80;;;;;;;;;;5065443;28;20501;-82
2022/05/07 13:40:51;;;;;;;27.45;18.85;;;;;;;;;;5083313;28;20533;-81
2022/05/07 13:43:17;;;;;;;22.15;17.95;;;;;;;;;;5066290;28;20048;-82
2022/05/07 13:45:43;;;;;;;20.63;18.52;;;;;;;;;;5084099;28;20067;-82
2022/05/07 13:48:10;;;;;;;22.90;18.55;;;;;;;;;;5077536;28;20564;-81
2022/05/07 13:50:39;;;;;;;26.85;17.83;;;;;;;;;;5077311;28;20040;-81
2022/05/07 13:53:07;;;;;;;22.83;17.60;;;;;;;;;;5067593;28;20071;-81
2022/05/07 13:55:33;;;;;;;19.60;15.75;;;;;;;;;;5081047;28;20060;-81
2022/05/07 13:57:59;;;;;;;21.17;17.60;;;;;;;;;;5079765;28;20040;-82
2022/05/07 14:00:28;;;;;;;20.67;15.80;;;;;;;;;;5096897;28;20112;-81
2022/05/07 14:02:54;;;;;;;22.52;16.85;;;;;;;;;;5082601;28;20045;-81
2022/05/07 14:05:20;;;;;;;21.70;17.02;;;;;;;;;;5076617;28;20037;-82
2022/05/07 14:07:47;;;;;;;22.17;16.58;;;;;;;;;;5072774;28;20044;-81
2022/05/07 14:10:13;;;;;;;19.45;15.77;;;;;;;;;;5069505;28;20163;-82
2022/05/07 14:12:39;;;;;;;19.55;14.25;;;;;;;;;;5072618;28;20044;-82
2022/05/07 14:15:05;;;;;;;19.45;14.38;;;;;;;;;;5083316;28;20083;-81
2022/05/07 14:17:32;;;;;;;21.10;14.35;;;;;;;;;;5082838;28;20044;-81
2022/05/07 14:19:59;;;;;;;18.55;13.27;;;;;;;;;;5061716;28;20048;-82
2022/05/07 14:22:26;;;;;;;19.35;14.75;;;;;;;;;;5082978;28;20040;-80
2022/05/07 14:24:54;;;;;;;18.05;14.45;;;;;;;;;;5081422;28;20047;-82
2022/05/07 14:27:20;;;;;;;17.80;15.23;;;;;;;;;;5082508;28;20080;-83
2022/05/07 14:29:46;;;;;;;18.20;14.00;;;;;;;;;;5082513;28;20044;-84
2022/05/07 14:32:13;;;;;;;21.45;15.07;;;;;;;;;;5077947;28;20041;-81
2022/05/07 14:34:39;;;;;;;18.73;14.98;;;;;;;;;;5077967;28;20044;-79
2022/05/07 14:37:05;;;;;;;18.77;14.43;;;;;;;;;;5054649;28;20060;-81
2022/05/07 14:39:31;;;;;;;17.13;13.68;;;;;;;;;;5079494;28;20086;-81
2022/05/07 14:41:57;;;;;;;16.33;13.10;;;;;;;;;;5081415;28;20048;-80
2022/05/07 14:44:24;;;;;;;16.77;12.48;;;;;;;;;;5079228;28;20037;-80
2022/05/07 14:46:50;;;;;;;14.05;10.55;;;;;;;;;;5063515;28;20055;-80
2022/05/07 14:49:16;;;;;;;13.32;9.27;;;;;;;;;;5077111;28;20063;-82
2022/05/07 14:51:42;;;;;;;11.35;7.47;;;;;;;;;;5063534;28;20044;-78
2022/05/07 14:54:08;;;;;;;11.48;7.10;;;;;;;;;;5078259;28;20123;-79
2022/05/07 14:56:34;;;;;;;9.57;6.28;;;;;;;;;;5060405;28;20049;-79
2022/05/07 14:59:01;;;;;;;10.55;6.18;;;;;;;;;;5074922;28;20044;-79